Terminal Aerodrome Forecast
Issued by NWS

Home | Current Version | Previous Version | Text Only | Print | Product List | Glossary On
Versions: 1 2 3 4 5 6 7 8 9 10 11 12 13 14 15 16
000
FTUS43 KIND 242320
TAFLAF
TAF
KLAF 242320Z 2500/2524 01005KT P6SM SCT025 BKN035
     FM250600 36010KT P6SM BKN025
     FM251400 01011G19KT P6SM SCT030
      AMD LTD TO CLD VIS AND WIND 2501/2513=

USA.gov is the U.S. government's official web portal to all federal, state and local government web resources and services.